West Palm Beach, FL (33401)

12:51 AM EDT on September 04, 2015 (GMT -0400)
Palm Beach, FL | | Change Station
CLOSE
Current Station
Personal Weather Station
Location: Palm Beach, FL
Elevation: 8 ft
Nearby Weather Stations

Elev 8 ft 26.71 °N, 80.04 °W | Updated 10 seconds ago

Scattered Clouds
Scattered Clouds
81.0 °F
Feels Like 86 °F
N
0.0
Wind Variable Wind from West
Gusts 1.0 mph

Today
High -- | Low -- °F
--% Chance of Precip.
Yesterday
High -- | Low -- °F
Precip. -- in
7:01 AM 7:37 PM
Waning Gibbous, 63% visible
Pressure 29.96 in
Visibility 10.0 miles
Clouds Few 3200 ft
Scattered Clouds 25000 ft
Heat Index 86 °F
Dew Point 73 °F
Humidity 76%
Rainfall 0.00 in
Snow Depth Not available.
UV 0 out of 12
Pollen 4.70 out of 12
Air Quality Not available.
Flu Activity Not available.
METAR KPBI 040353Z 15003KT 10SM FEW032 SCT250 26/22 A2996 RMK AO2 SLP145 T02560217
Pressure 29.96 in
Visibility 10.0 miles
Clouds Few 3200 ft
Scattered Clouds 25000 ft
Heat Index 86 °F
Dew Point 73 °F
Humidity 76%
Rainfall 0.00 in
Snow Depth Not available.
UV 0 out of 12
Pollen 4.70 out of 12
Air Quality Not available.
Flu Activity Not available.
METAR KPBI 040353Z 15003KT 10SM FEW032 SCT250 26/22 A2996 RMK AO2 SLP145 T02560217

10-Day Weather Forecast

×

Almanac

Astronomy

Sep. 04, 2015 Rise Set
Actual Time
Civil Twilight
Nautical Twilight
Astronomical Twilight
Moon
Length of Visible Light
Length of Day
Tomorrow will be .
, % of the Moon is Illuminated

Today's Extremes

State Highs State Lows

Community

WunderPhotos

Upload Photos

1,852,129 photos uploaded!

WunderBlogs® & News

Nearby

Air Quality

  Air Quality AQ Index Pollutant
Not available.

Snow Depth

Station Depth Elevation

Earthquake Activity

City Distance Mag. Time & Date
Minimum magnitude displayed is 2.5.

Coastal Water Temperatures

Place Temperature

Stations

Nearby Weather Stations

Station Location Temp. Windchill Dew Point Humidity Wind Precip. Elev Updated Type